createdAt,value
2018-09-23T00:00:48.375Z,95822.00
2018-09-23T00:03:18.375Z,95832.00
2018-09-23T00:05:48.328Z,95822.00
2018-09-23T00:08:18.360Z,95821.00
2018-09-23T00:10:48.466Z,95825.00
2018-09-23T00:13:18.493Z,95823.00
2018-09-23T00:15:48.612Z,95827.00
2018-09-23T00:18:18.652Z,95838.00
2018-09-23T00:20:48.565Z,95842.00
2018-09-23T00:23:18.614Z,95828.00
2018-09-23T00:25:48.630Z,95833.00
2018-09-23T00:28:18.599Z,95828.00
2018-09-23T00:30:48.561Z,95829.00
2018-09-23T00:33:18.645Z,95830.00
2018-09-23T00:35:47.772Z,95814.00
2018-09-23T00:38:17.001Z,95813.00
2018-09-23T00:40:46.227Z,95807.00
2018-09-23T00:43:15.503Z,95812.00
2018-09-23T00:45:44.711Z,95810.00
2018-09-23T00:48:13.950Z,95807.00
2018-09-23T00:50:43.119Z,95795.00
2018-09-23T00:53:12.348Z,95799.00
2018-09-23T00:55:41.625Z,95791.00
2018-09-23T00:58:10.822Z,95787.00
2018-09-23T01:00:40.011Z,95800.00
2018-09-23T01:03:09.226Z,95798.00
2018-09-23T01:05:38.335Z,95794.00
2018-09-23T01:08:07.624Z,95792.00
2018-09-23T01:10:36.824Z,95789.00
2018-09-23T01:13:06.103Z,95781.00
2018-09-23T01:15:35.298Z,95784.00
2018-09-23T01:18:04.392Z,95775.00
2018-09-23T01:20:34.362Z,95777.00
2018-09-23T01:23:03.584Z,95775.00
2018-09-23T01:25:32.890Z,95781.00
2018-09-23T01:28:02.112Z,95782.00
2018-09-23T01:30:31.312Z,95789.00
2018-09-23T01:33:00.518Z,95788.00
2018-09-23T01:35:29.843Z,95785.00
2018-09-23T01:37:59.010Z,95782.00
2018-09-23T01:40:28.249Z,95767.00
2018-09-23T01:42:57.506Z,95774.00
2018-09-23T01:45:27.280Z,95771.00
2018-09-23T01:47:56.491Z,95771.00
2018-09-23T01:50:25.709Z,95751.00
2018-09-23T01:52:54.943Z,95747.00
2018-09-23T01:55:24.385Z,95737.00
2018-09-23T01:57:53.613Z,95754.00
2018-09-23T02:00:22.742Z,95750.00
2018-09-23T02:02:51.942Z,95750.00
2018-09-23T02:05:21.143Z,95758.00
2018-09-23T02:07:50.341Z,95747.00
2018-09-23T02:10:20.045Z,95760.00
2018-09-23T02:12:50.164Z,95744.00
2018-09-23T02:15:20.156Z,95752.00
2018-09-23T02:17:50.164Z,95753.00
2018-09-23T02:20:20.185Z,95738.00
2018-09-23T02:22:50.206Z,95734.00
2018-09-23T02:25:20.240Z,95731.00
2018-09-23T02:27:50.221Z,95733.00
2018-09-23T02:30:20.360Z,95730.00
2018-09-23T02:32:50.254Z,95731.00
2018-09-23T02:35:22.118Z,95720.00
2018-09-23T02:37:53.042Z,95725.00
2018-09-23T02:40:22.251Z,95717.00
2018-09-23T02:42:51.708Z,95715.00
2018-09-23T02:45:20.898Z,95707.00
2018-09-23T02:47:50.396Z,95708.00
2018-09-23T02:50:20.431Z,95694.00
2018-09-23T02:52:50.444Z,95685.00
2018-09-23T02:55:20.587Z,95680.00
2018-09-23T02:57:50.642Z,95678.00
2018-09-23T03:00:20.589Z,95664.00
2018-09-23T03:02:50.679Z,95668.00
2018-09-23T03:05:20.755Z,95664.00
2018-09-23T03:07:50.594Z,95665.00
2018-09-23T03:10:20.936Z,95672.00
2018-09-23T03:12:50.837Z,95665.00
2018-09-23T03:15:20.930Z,95667.00
2018-09-23T03:17:50.907Z,95672.00
2018-09-23T03:20:20.911Z,95662.00
2018-09-23T03:22:51.000Z,95661.00
2018-09-23T03:25:21.035Z,95649.00
2018-09-23T03:27:51.088Z,95635.00
2018-09-23T03:30:21.035Z,95638.00
2018-09-23T03:32:51.106Z,95631.00
2018-09-23T03:35:21.165Z,95621.00
2018-09-23T03:37:51.180Z,95624.00
2018-09-23T03:40:21.210Z,95606.00
2018-09-23T03:42:51.234Z,95606.00
2018-09-23T03:45:21.318Z,95607.00
2018-09-23T03:47:51.198Z,95599.00
2018-09-23T03:50:21.287Z,95604.00
2018-09-23T03:52:51.383Z,95598.00
2018-09-23T03:55:21.428Z,95595.00
2018-09-23T03:57:51.437Z,95585.00
2018-09-23T04:00:21.420Z,95585.00
2018-09-23T04:02:51.527Z,95590.00
2018-09-23T04:05:21.518Z,95584.00
2018-09-23T04:07:51.606Z,95575.00
2018-09-23T04:10:21.531Z,95590.00
2018-09-23T04:12:51.565Z,95571.00
2018-09-23T04:15:21.567Z,95564.00
2018-09-23T04:17:51.771Z,95573.00
2018-09-23T04:20:21.634Z,95565.00
2018-09-23T04:22:52.412Z,95559.00
2018-09-23T04:25:22.709Z,95558.00
2018-09-23T04:27:52.052Z,95553.00
2018-09-23T04:30:22.318Z,95555.00
2018-09-23T04:32:51.831Z,95542.00
2018-09-23T04:35:21.903Z,95536.00
2018-09-23T04:37:51.881Z,95530.00
2018-09-23T04:40:21.956Z,95533.00
2018-09-23T04:42:51.948Z,95539.00
2018-09-23T04:45:22.012Z,95536.00
2018-09-23T04:47:51.983Z,95531.00
2018-09-23T04:50:22.023Z,95518.00
2018-09-23T04:52:52.177Z,95530.00
2018-09-23T04:55:22.207Z,95528.00
2018-09-23T04:57:52.087Z,95522.00
2018-09-23T05:00:22.212Z,95531.00
2018-09-23T05:02:52.171Z,95522.00
2018-09-23T05:05:22.352Z,95516.00
2018-09-23T05:07:52.331Z,95521.00
2018-09-23T05:10:22.295Z,95514.00
2018-09-23T05:12:52.378Z,95505.00
2018-09-23T05:15:22.363Z,95501.00
2018-09-23T05:17:52.510Z,95503.00
2018-09-23T05:20:22.562Z,95496.00
2018-09-23T05:22:52.550Z,95491.00
2018-09-23T05:25:22.687Z,95485.00
2018-09-23T05:27:52.627Z,95490.00
2018-09-23T05:30:22.675Z,95481.00
2018-09-23T05:32:52.720Z,95483.00
2018-09-23T05:35:22.763Z,95488.00
2018-09-23T05:37:53.374Z,95475.00
2018-09-23T05:40:22.792Z,95486.00
2018-09-23T05:42:52.917Z,95475.00
2018-09-23T05:45:22.797Z,95471.00
2018-09-23T05:47:52.927Z,95461.00
2018-09-23T05:50:22.804Z,95468.00
2018-09-23T05:52:52.859Z,95460.00
2018-09-23T05:55:22.941Z,95459.00
2018-09-23T05:57:52.915Z,95444.00
2018-09-23T06:00:22.987Z,95438.00
2018-09-23T06:02:53.047Z,95446.00
2018-09-23T06:05:23.144Z,95445.00
2018-09-23T06:07:53.179Z,95445.00
2018-09-23T06:10:23.304Z,95442.00
2018-09-23T06:12:53.113Z,95437.00
2018-09-23T06:15:23.231Z,95424.00
2018-09-23T06:17:53.246Z,95422.00
2018-09-23T06:20:23.477Z,95413.00
2018-09-23T06:22:53.387Z,95415.00
2018-09-23T06:25:23.582Z,95417.00
2018-09-23T06:27:53.378Z,95420.00
2018-09-23T06:30:23.523Z,95424.00
2018-09-23T06:32:53.435Z,95421.00
2018-09-23T06:35:23.616Z,95418.00
2018-09-23T06:37:53.539Z,95418.00
2018-09-23T06:40:23.693Z,95416.00
2018-09-23T06:42:53.646Z,95418.00
2018-09-23T06:45:23.671Z,95412.00
2018-09-23T06:47:53.834Z,95407.00
2018-09-23T06:50:23.631Z,95407.00
2018-09-23T06:52:53.756Z,95409.00
2018-09-23T06:55:23.826Z,95401.00
2018-09-23T06:57:53.863Z,95395.00
2018-09-23T07:00:23.946Z,95382.00
2018-09-23T07:02:53.849Z,95388.00
2018-09-23T07:05:23.980Z,95386.00
2018-09-23T07:07:54.166Z,95394.00
2018-09-23T07:10:24.074Z,95386.00
2018-09-23T07:12:54.442Z,95384.00
2018-09-23T07:15:24.120Z,95380.00
2018-09-23T07:17:54.115Z,95380.00
2018-09-23T07:20:24.375Z,95385.00
2018-09-23T07:22:54.189Z,95372.00
2018-09-23T07:25:24.345Z,95395.00
2018-09-23T07:27:54.303Z,95381.00
2018-09-23T07:30:24.467Z,95377.00
2018-09-23T07:32:54.524Z,95383.00
2018-09-23T07:35:24.515Z,95379.00
2018-09-23T07:37:55.729Z,95381.00
2018-09-23T07:40:24.970Z,95386.00
2018-09-23T07:42:54.766Z,95378.00
2018-09-23T07:45:24.635Z,95374.00
2018-09-23T07:47:54.834Z,95379.00
2018-09-23T07:50:24.722Z,95375.00
2018-09-23T07:52:54.813Z,95376.00
2018-09-23T07:55:24.742Z,95375.00
2018-09-23T07:57:54.917Z,95372.00
2018-09-23T08:00:24.895Z,95384.00
2018-09-23T08:02:54.815Z,95382.00
2018-09-23T08:05:24.908Z,95369.00
2018-09-23T08:07:55.010Z,95361.00
2018-09-23T08:10:25.048Z,95357.00
2018-09-23T08:12:55.223Z,95347.00
2018-09-23T08:15:25.175Z,95354.00
2018-09-23T08:17:55.179Z,95357.00
2018-09-23T08:20:25.492Z,95344.00
2018-09-23T08:22:55.351Z,95358.00
2018-09-23T08:25:25.342Z,95346.00
2018-09-23T08:27:55.274Z,95347.00
2018-09-23T08:30:25.378Z,95348.00
2018-09-23T08:32:55.322Z,95355.00
2018-09-23T08:35:25.482Z,95354.00
2018-09-23T08:37:55.439Z,95356.00
2018-09-23T08:40:25.874Z,95353.00
2018-09-23T08:42:55.755Z,95350.00
2018-09-23T08:45:26.430Z,95350.00
2018-09-23T08:47:55.738Z,95339.00
2018-09-23T08:50:25.737Z,95327.00
2018-09-23T08:52:55.622Z,95333.00
2018-09-23T08:55:25.775Z,95317.00
2018-09-23T08:57:55.820Z,95316.00
2018-09-23T09:00:25.866Z,95315.00
2018-09-23T09:02:55.807Z,95319.00
2018-09-23T09:05:25.948Z,95324.00
2018-09-23T09:07:56.076Z,95313.00
2018-09-23T09:10:26.026Z,95319.00
2018-09-23T09:12:56.051Z,95320.00
2018-09-23T09:15:27.275Z,95311.00
2018-09-23T09:17:56.456Z,95314.00
2018-09-23T09:20:27.410Z,95309.00
2018-09-23T09:22:56.749Z,95299.00
2018-09-23T09:25:26.338Z,95296.00
2018-09-23T09:27:56.337Z,95295.00
2018-09-23T09:30:27.594Z,95285.00
2018-09-23T09:32:56.832Z,95285.00
2018-09-23T09:35:26.782Z,95289.00
2018-09-23T09:37:56.644Z,95285.00
2018-09-23T09:40:26.546Z,95292.00
2018-09-23T09:42:56.704Z,95285.00
2018-09-23T09:45:26.835Z,95301.00
2018-09-23T09:47:56.829Z,95286.00
2018-09-23T09:50:26.741Z,95291.00
2018-09-23T09:52:56.796Z,95283.00
2018-09-23T09:55:26.929Z,95277.00
2018-09-23T09:57:56.992Z,95290.00
2018-09-23T10:00:32.194Z,95272.00
2018-09-23T10:03:01.708Z,95268.00
2018-09-23T10:05:30.964Z,95271.00
2018-09-23T10:08:00.225Z,95269.00
2018-09-23T10:10:29.358Z,95260.00
2018-09-23T10:12:58.610Z,95265.00
2018-09-23T10:15:28.257Z,95274.00
2018-09-23T10:17:57.393Z,95248.00
2018-09-23T10:20:28.478Z,95249.00
2018-09-23T10:22:57.644Z,95252.00
2018-09-23T10:25:28.479Z,95256.00
2018-09-23T10:27:57.661Z,95245.00
2018-09-23T10:30:28.668Z,95246.00
2018-09-23T10:32:58.973Z,95250.00
2018-09-23T10:35:28.587Z,95236.00
2018-09-23T10:37:57.964Z,95225.00
2018-09-23T10:40:28.699Z,95212.00
2018-09-23T10:42:57.974Z,95210.00
2018-09-23T10:45:28.619Z,95207.00
2018-09-23T10:47:58.002Z,95214.00
2018-09-23T10:50:28.567Z,95195.00
2018-09-23T10:52:58.730Z,95195.00
2018-09-23T10:55:28.553Z,95196.00
2018-09-23T10:57:57.847Z,95195.00
2018-09-23T11:00:28.669Z,95196.00
2018-09-23T11:02:57.890Z,95188.00
2018-09-23T11:10:26.751Z,95186.00
2018-09-23T11:12:55.923Z,95173.00
2018-09-23T11:15:25.122Z,95166.00
2018-09-23T11:17:54.307Z,95178.00
2018-09-23T11:20:23.517Z,95173.00
2018-09-23T11:22:53.163Z,95172.00
2018-09-23T11:25:22.346Z,95155.00
2018-09-23T11:27:51.547Z,95161.00
2018-09-23T11:30:20.707Z,95146.00
2018-09-23T11:32:50.123Z,95140.00
2018-09-23T11:35:19.282Z,95130.00
2018-09-23T11:37:48.540Z,95124.00
2018-09-23T11:40:17.643Z,95115.00
2018-09-23T11:42:46.924Z,95100.00
2018-09-23T11:45:16.062Z,95082.00
2018-09-23T11:47:45.242Z,95091.00
2018-09-23T11:50:14.468Z,95091.00
2018-09-23T11:52:43.789Z,95085.00
2018-09-23T11:55:13.007Z,95074.00
2018-09-23T11:57:42.337Z,95058.00
2018-09-23T12:00:11.504Z,95073.00
2018-09-23T12:02:40.760Z,95052.00
2018-09-23T12:05:09.853Z,95042.00
2018-09-23T12:07:39.161Z,95047.00
2018-09-23T12:10:08.382Z,95048.00
2018-09-23T12:12:37.673Z,95025.00
2018-09-23T12:15:06.862Z,95056.00
2018-09-23T12:17:36.053Z,95026.00
2018-09-23T12:20:05.362Z,95025.00
2018-09-23T12:22:34.620Z,95021.00
2018-09-23T12:25:03.815Z,95037.00
2018-09-23T12:27:32.991Z,95026.00
2018-09-23T12:30:02.187Z,95027.00
2018-09-23T12:32:31.388Z,95006.00
2018-09-23T12:35:00.672Z,94990.00
2018-09-23T12:37:29.959Z,95001.00
2018-09-23T12:39:59.236Z,94980.00
2018-09-23T12:42:28.674Z,95003.00
2018-09-23T12:44:58.794Z,94981.00
2018-09-23T12:47:28.892Z,94980.00
2018-09-23T12:49:58.861Z,94972.00
2018-09-23T12:52:28.875Z,94959.00
2018-09-23T12:54:58.887Z,94945.00
2018-09-23T12:57:28.961Z,94950.00
2018-09-23T12:59:58.925Z,94940.00
2018-09-23T13:02:28.963Z,94927.00
2018-09-23T13:04:58.952Z,94948.00
2018-09-23T13:07:28.881Z,94924.00
2018-09-23T13:09:58.990Z,94911.00
2018-09-23T13:12:29.195Z,94908.00
2018-09-23T13:14:59.198Z,94919.00
2018-09-23T13:17:29.136Z,94902.00
2018-09-23T13:19:59.113Z,94895.00
2018-09-23T13:22:29.092Z,94898.00
2018-09-23T13:24:58.975Z,94888.00
2018-09-23T13:27:29.035Z,94875.00
2018-09-23T13:29:59.159Z,94865.00
2018-09-23T13:32:29.136Z,94845.00
2018-09-23T13:34:59.126Z,94860.00
2018-09-23T13:37:29.243Z,94859.00
2018-09-23T13:39:59.402Z,94849.00
2018-09-23T13:42:29.390Z,94841.00
2018-09-23T13:44:59.433Z,94839.00
2018-09-23T13:47:29.308Z,94836.00
2018-09-23T13:49:59.419Z,94834.00
2018-09-23T13:52:29.554Z,94829.00
2018-09-23T13:54:59.759Z,94835.00
2018-09-23T13:57:29.476Z,94819.00
2018-09-23T13:59:59.608Z,94815.00
2018-09-23T14:02:29.544Z,94812.00
2018-09-23T14:04:59.622Z,94805.00
2018-09-23T14:07:29.515Z,94808.00
2018-09-23T14:09:59.672Z,94797.00
2018-09-23T14:12:29.651Z,94798.00
2018-09-23T14:14:59.688Z,94802.00
2018-09-23T14:17:29.645Z,94781.00
2018-09-23T14:19:59.819Z,94780.00
2018-09-23T14:22:29.894Z,94779.00
2018-09-23T14:24:59.913Z,94760.00
2018-09-23T14:27:30.028Z,94752.00
2018-09-23T14:29:59.910Z,94756.00
2018-09-23T14:32:29.953Z,94744.00
2018-09-23T14:34:59.992Z,94740.00
2018-09-23T14:37:29.989Z,94733.00
2018-09-23T14:40:01.646Z,94730.00
2018-09-23T14:42:31.038Z,94716.00
2018-09-23T14:45:00.196Z,94702.00
2018-09-23T14:47:30.034Z,94701.00
2018-09-23T14:50:00.006Z,94707.00
2018-09-23T14:52:30.091Z,94707.00
2018-09-23T14:55:00.077Z,94701.00
2018-09-23T14:57:30.180Z,94699.00
2018-09-23T15:00:03.068Z,94691.00
2018-09-23T15:02:30.113Z,94698.00
2018-09-23T15:05:00.287Z,94699.00
2018-09-23T15:07:30.331Z,94685.00
2018-09-23T15:10:00.282Z,94689.00
2018-09-23T15:12:30.159Z,94669.00
2018-09-23T15:15:00.313Z,94666.00
2018-09-23T15:17:30.564Z,94660.00
2018-09-23T15:20:00.337Z,94645.00
2018-09-23T15:22:30.280Z,94656.00
2018-09-23T15:25:00.662Z,94652.00
2018-09-23T15:27:30.486Z,94643.00
2018-09-23T15:30:00.720Z,94619.00
2018-09-23T15:32:30.496Z,94606.00
2018-09-23T15:35:00.585Z,94600.00
2018-09-23T15:37:30.627Z,94594.00
2018-09-23T15:40:00.622Z,94584.00
2018-09-23T15:42:30.674Z,94588.00
2018-09-23T15:45:00.708Z,94597.00
2018-09-23T15:47:30.627Z,94599.00
2018-09-23T15:50:00.646Z,94582.00
2018-09-23T15:52:30.727Z,94581.00
2018-09-23T15:55:00.803Z,94565.00
2018-09-23T15:57:30.767Z,94568.00
2018-09-23T16:00:00.776Z,94569.00
2018-09-23T16:02:30.625Z,94564.00
2018-09-23T16:05:00.801Z,94570.00
2018-09-23T16:07:30.934Z,94557.00
2018-09-23T16:10:00.774Z,94547.00
2018-09-23T16:12:30.999Z,94541.00
2018-09-23T16:15:00.884Z,94517.00
2018-09-23T16:17:31.004Z,94544.00
2018-09-23T16:20:00.926Z,94523.00
2018-09-23T16:22:30.887Z,94533.00
2018-09-23T16:25:00.858Z,94531.00
2018-09-23T16:27:30.855Z,94531.00
2018-09-23T16:30:01.002Z,94526.00
2018-09-23T16:32:30.977Z,94531.00
2018-09-23T16:35:01.111Z,94505.00
2018-09-23T16:37:31.199Z,94513.00
2018-09-23T16:40:01.042Z,94517.00
2018-09-23T16:42:31.063Z,94524.00
2018-09-23T16:45:01.177Z,94507.00
2018-09-23T16:47:31.119Z,94505.00
2018-09-23T16:50:01.109Z,94489.00
2018-09-23T16:52:31.191Z,94502.00
2018-09-23T16:55:01.907Z,94494.00
2018-09-23T16:57:31.330Z,94497.00
2018-09-23T17:02:26.608Z,94520.00
2018-09-23T17:04:55.671Z,94520.00
2018-09-23T17:07:24.884Z,94513.00
2018-09-23T17:09:54.007Z,94518.00
2018-09-23T17:12:23.138Z,94510.00
2018-09-23T17:14:52.294Z,94530.00
2018-09-23T17:17:21.496Z,94498.00
2018-09-23T17:19:50.757Z,94502.00
2018-09-23T17:22:19.949Z,94522.00
2018-09-23T17:24:49.136Z,94493.00
2018-09-23T17:27:18.323Z,94506.00
2018-09-23T17:29:47.511Z,94512.00
2018-09-23T17:32:16.693Z,94522.00
2018-09-23T17:34:46.084Z,94514.00
2018-09-23T17:37:15.256Z,94523.00
2018-09-23T17:39:45.073Z,94537.00
2018-09-23T17:42:15.046Z,94513.00
2018-09-23T17:44:44.341Z,94511.00
2018-09-23T17:47:13.740Z,94523.00
2018-09-23T17:49:42.886Z,94531.00
2018-09-23T17:52:12.221Z,94525.00
2018-09-23T17:54:41.474Z,94512.00
2018-09-23T17:57:10.681Z,94504.00
2018-09-23T17:59:39.834Z,94517.00
2018-09-23T18:02:09.365Z,94533.00
2018-09-23T18:04:38.555Z,94525.00
2018-09-23T18:07:07.753Z,94530.00
2018-09-23T18:09:36.960Z,94532.00
2018-09-23T18:12:06.149Z,94507.00
2018-09-23T18:14:35.397Z,94541.00
2018-09-23T18:17:04.647Z,94533.00
2018-09-23T18:19:33.765Z,94555.00
2018-09-23T18:22:03.007Z,94567.00
2018-09-23T18:24:32.214Z,94586.00
2018-09-23T18:27:02.201Z,94585.00
2018-09-23T18:29:32.245Z,94591.00
2018-09-23T18:32:02.297Z,94604.00
2018-09-23T18:34:32.374Z,94589.00
2018-09-23T18:37:02.407Z,94607.00
2018-09-23T18:39:32.327Z,94615.00
2018-09-23T18:42:02.336Z,94593.00
2018-09-23T18:44:32.407Z,94625.00
2018-09-23T18:47:02.256Z,94607.00
2018-09-23T18:49:32.400Z,94617.00
2018-09-23T18:52:02.324Z,94629.00
2018-09-23T18:54:37.684Z,94657.00
2018-09-23T18:57:06.934Z,94704.00
2018-09-23T18:59:36.103Z,94770.00
2018-09-23T19:02:05.280Z,94783.00
2018-09-23T19:04:34.478Z,94797.00
2018-09-23T19:07:03.672Z,94786.00
2018-09-23T19:09:33.086Z,94837.00
2018-09-23T19:12:02.312Z,94844.00
2018-09-23T19:14:32.479Z,94868.00
2018-09-23T19:17:02.531Z,94835.00
2018-09-23T19:19:37.724Z,94833.00
2018-09-23T19:22:11.050Z,94851.00
2018-09-23T19:24:40.211Z,94933.00
2018-09-23T19:27:09.437Z,94926.00
2018-09-23T19:29:38.515Z,94874.00
2018-09-23T19:32:07.631Z,94877.00
2018-09-23T19:37:36.645Z,94963.00
2018-09-23T19:40:05.843Z,94924.00
2018-09-23T19:42:34.995Z,94945.00
2018-09-23T19:45:04.123Z,94936.00
2018-09-23T19:47:33.330Z,94942.00
2018-09-23T19:50:03.185Z,94963.00
2018-09-23T19:52:32.913Z,95023.00
2018-09-23T19:55:02.899Z,95038.00
2018-09-23T19:57:32.652Z,95020.00
2018-09-23T20:00:02.871Z,95003.00
2018-09-23T20:02:32.904Z,95026.00
2018-09-23T20:05:02.819Z,95009.00
2018-09-23T20:07:32.943Z,95009.00
2018-09-23T20:10:02.932Z,95018.00
2018-09-23T20:12:32.874Z,95012.00
2018-09-23T20:15:02.779Z,95034.00
2018-09-23T20:17:32.936Z,95042.00
2018-09-23T20:20:02.906Z,95043.00
2018-09-23T20:22:32.092Z,95060.00
2018-09-23T20:25:01.326Z,95037.00
2018-09-23T20:27:30.489Z,95047.00
2018-09-23T20:29:59.794Z,95052.00
2018-09-23T20:32:28.904Z,95090.00
2018-09-23T20:34:58.012Z,95093.00
2018-09-23T20:37:27.430Z,95074.00
2018-09-23T20:39:56.664Z,95074.00
2018-09-23T20:42:25.826Z,95091.00
2018-09-23T20:44:55.305Z,95091.00
2018-09-23T20:47:24.699Z,95112.00
2018-09-23T20:49:53.936Z,95128.00
2018-09-23T20:52:23.159Z,95135.00
2018-09-23T20:54:52.650Z,95141.00
2018-09-23T20:57:22.040Z,95156.00
2018-09-23T20:59:51.205Z,95149.00
2018-09-23T21:02:20.418Z,95152.00
2018-09-23T21:04:49.598Z,95143.00
2018-09-23T21:07:18.843Z,95142.00
2018-09-23T21:09:47.982Z,95154.00
2018-09-23T21:12:17.182Z,95165.00
2018-09-23T21:14:46.450Z,95177.00
2018-09-23T21:17:15.663Z,95185.00
2018-09-23T21:19:44.864Z,95202.00
2018-09-23T21:22:14.074Z,95202.00
2018-09-23T21:24:43.279Z,95244.00
2018-09-23T21:27:12.520Z,95293.00
2018-09-23T21:29:41.712Z,95320.00
2018-09-23T21:32:10.846Z,95342.00
2018-09-23T21:34:40.032Z,95351.00
2018-09-23T21:37:09.172Z,95363.00
2018-09-23T21:39:38.397Z,95407.00
2018-09-23T21:42:07.617Z,95429.00
2018-09-23T21:44:36.731Z,95436.00
2018-09-23T21:47:05.949Z,95480.00
2018-09-23T21:49:35.176Z,95490.00
2018-09-23T21:52:04.605Z,95512.00
2018-09-23T21:54:33.736Z,95521.00
2018-09-23T21:57:03.671Z,95496.00
2018-09-23T21:59:33.634Z,95517.00
2018-09-23T22:02:03.552Z,95545.00
2018-09-23T22:04:33.832Z,95506.00
2018-09-23T22:07:03.714Z,95490.00
2018-09-23T22:09:33.718Z,95515.00
2018-09-23T22:12:03.685Z,95536.00
2018-09-23T22:14:33.583Z,95534.00
2018-09-23T22:17:03.742Z,95525.00
2018-09-23T22:19:33.919Z,95563.00
2018-09-23T22:22:03.792Z,95539.00
2018-09-23T22:24:33.687Z,95573.00
2018-09-23T22:27:03.952Z,95585.00
2018-09-23T22:29:33.778Z,95630.00
2018-09-23T22:32:04.013Z,95677.00
2018-09-23T22:34:33.933Z,95672.00
2018-09-23T22:37:04.061Z,95726.00
2018-09-23T22:39:34.034Z,95699.00
2018-09-23T22:42:04.109Z,95681.00
2018-09-23T22:44:34.000Z,95681.00
2018-09-23T22:47:04.083Z,95714.00
2018-09-23T22:49:33.918Z,95729.00
2018-09-23T22:52:04.067Z,95735.00
2018-09-23T22:54:34.067Z,95754.00
2018-09-23T22:57:03.956Z,95770.00
2018-09-23T22:59:33.930Z,95753.00
2018-09-23T23:02:03.982Z,95778.00
2018-09-23T23:04:34.118Z,95775.00
2018-09-23T23:07:04.111Z,95780.00
2018-09-23T23:09:34.330Z,95763.00
2018-09-23T23:12:04.410Z,95752.00
2018-09-23T23:14:34.280Z,95776.00
2018-09-23T23:17:04.210Z,95782.00
2018-09-23T23:19:34.255Z,95792.00
2018-09-23T23:22:04.222Z,95801.00
2018-09-23T23:24:34.318Z,95817.00
2018-09-23T23:27:04.361Z,95822.00
2018-09-23T23:29:34.301Z,95806.00
2018-09-23T23:32:04.296Z,95821.00
2018-09-23T23:34:34.374Z,95845.00
2018-09-23T23:37:04.391Z,95862.00
2018-09-23T23:39:34.533Z,95881.00
2018-09-23T23:42:04.364Z,95900.00
2018-09-23T23:44:34.498Z,95894.00
2018-09-23T23:47:04.436Z,95886.00
2018-09-23T23:49:34.477Z,95892.00
2018-09-23T23:52:04.355Z,95905.00
2018-09-23T23:54:34.670Z,95919.00
2018-09-23T23:57:04.563Z,95913.00
2018-09-23T23:59:34.716Z,95911.00
